createdAt,value
2016-08-28T00:00:56.567Z,55.27
2016-08-28T00:01:56.573Z,55.36
2016-08-28T00:02:56.578Z,55.27
2016-08-28T00:03:56.579Z,55.05
2016-08-28T00:04:56.586Z,55.43
2016-08-28T00:05:56.589Z,55.73
2016-08-28T00:06:56.595Z,55.53
2016-08-28T00:07:56.598Z,56.21
2016-08-28T00:08:56.600Z,56.3
2016-08-28T00:09:56.607Z,56.02
2016-08-28T00:10:56.609Z,56.24
2016-08-28T00:11:56.614Z,56.5
2016-08-28T00:12:56.621Z,56.5
2016-08-28T00:13:56.634Z,56.21
2016-08-28T00:14:56.640Z,56.5
2016-08-28T00:15:56.639Z,56.21
2016-08-28T00:16:56.645Z,56.11
2016-08-28T00:17:56.640Z,56.21
2016-08-28T00:18:56.649Z,56.11
2016-08-28T00:19:56.654Z,56.6
2016-08-28T00:20:56.652Z,55.92
2016-08-28T00:21:56.654Z,56.21
2016-08-28T00:22:56.661Z,56.21
2016-08-28T00:23:56.665Z,56.5
2016-08-28T00:24:56.667Z,56.79
2016-08-28T00:25:56.672Z,56.79
2016-08-28T00:26:56.677Z,57.08
2016-08-28T00:27:56.691Z,57.08
2016-08-28T00:28:56.703Z,56.7
2016-08-28T00:29:56.709Z,56.7
2016-08-28T00:30:56.717Z,56.5
2016-08-28T00:31:56.705Z,56.7
2016-08-28T00:32:56.700Z,56.02
2016-08-28T00:33:56.742Z,56.3
2016-08-28T00:34:56.714Z,55.92
2016-08-28T00:35:56.717Z,56.02
2016-08-28T00:36:56.717Z,55.92
2016-08-28T00:37:56.723Z,56.02
2016-08-28T00:38:56.725Z,55.92
2016-08-28T00:39:56.737Z,56.02
2016-08-28T00:40:56.733Z,56.02
2016-08-28T00:41:56.738Z,56.7
2016-08-28T00:42:56.741Z,56.6
2016-08-28T00:43:56.746Z,56.98
2016-08-28T00:44:56.750Z,57.28
2016-08-28T00:45:56.751Z,57.18
2016-08-28T00:46:56.758Z,57.82
2016-08-28T00:47:56.759Z,57.73
2016-08-28T00:48:56.763Z,57.82
2016-08-28T00:49:56.768Z,57.63
2016-08-28T00:50:56.772Z,58.4
2016-08-28T00:51:56.780Z,58.21
2016-08-28T00:52:56.778Z,58.4
2016-08-28T00:53:56.780Z,58.6
2016-08-28T00:54:56.784Z,58.6
2016-08-28T00:55:56.789Z,58.7
2016-08-28T00:56:56.792Z,59.28
2016-08-28T00:57:56.797Z,58.8
2016-08-28T00:58:56.797Z,59.25
2016-08-28T00:59:56.805Z,59.44
2016-08-28T01:00:56.807Z,59.53
2016-08-28T01:01:56.808Z,59.73
2016-08-28T01:02:56.817Z,60.31
2016-08-28T01:03:56.816Z,60.02
2016-08-28T01:04:56.818Z,60.31
2016-08-28T01:05:56.826Z,60.41
2016-08-28T01:06:56.826Z,60.5
2016-08-28T01:07:56.832Z,60.99
2016-08-28T01:08:56.832Z,60.99
2016-08-28T01:09:56.854Z,61.18
2016-08-28T01:10:56.845Z,61.27
2016-08-28T01:11:56.856Z,61.27
2016-08-28T01:12:56.857Z,61.18
2016-08-28T01:13:56.857Z,61.27
2016-08-28T01:14:56.862Z,61.37
2016-08-28T01:15:56.868Z,61.37
2016-08-28T01:16:56.868Z,61.66
2016-08-28T01:17:56.866Z,61.66
2016-08-28T01:18:56.874Z,62.12
2016-08-28T01:19:56.872Z,62.12
2016-08-28T01:20:56.878Z,62.4
2016-08-28T01:21:56.886Z,61.92
2016-08-28T01:22:56.886Z,61.86
2016-08-28T01:23:56.889Z,61.44
2016-08-28T01:24:56.902Z,61.63
2016-08-28T01:25:56.898Z,61.92
2016-08-28T01:26:56.901Z,61.76
2016-08-28T01:27:56.914Z,61.76
2016-08-28T01:28:56.909Z,61.76
2016-08-28T01:29:56.921Z,61.44
2016-08-28T01:30:56.918Z,61.76
2016-08-28T01:31:56.920Z,62.15
2016-08-28T01:32:56.932Z,61.83
2016-08-28T01:33:56.929Z,62.4
2016-08-28T01:34:56.932Z,62.5
2016-08-28T01:35:56.935Z,62.31
2016-08-28T01:36:56.944Z,61.95
2016-08-28T01:37:56.947Z,61.92
2016-08-28T01:38:56.946Z,62.21
2016-08-28T01:39:56.950Z,62.6
2016-08-28T01:40:56.955Z,62.4
2016-08-28T01:41:56.965Z,62.4
2016-08-28T01:42:56.963Z,62.4
2016-08-28T01:43:56.964Z,62.31
2016-08-28T01:44:56.972Z,62.4
2016-08-28T01:45:56.972Z,62.5
2016-08-28T01:46:56.977Z,62.4
2016-08-28T01:47:56.981Z,62.6
2016-08-28T01:48:56.986Z,63.47
2016-08-28T01:49:56.989Z,63.08
2016-08-28T01:50:56.992Z,63.28
2016-08-28T01:51:56.997Z,63.28
2016-08-28T01:52:57.003Z,62.98
2016-08-28T01:53:57.011Z,62.7
2016-08-28T01:54:57.010Z,63.28
2016-08-28T01:55:57.014Z,62.89
2016-08-28T01:56:57.015Z,62.89
2016-08-28T01:57:57.021Z,62.98
2016-08-28T01:58:57.033Z,63.66
2016-08-28T01:59:57.033Z,63.47
2016-08-28T02:00:57.030Z,63.37
2016-08-28T02:01:57.035Z,63.66
2016-08-28T02:02:57.039Z,63.66
2016-08-28T02:03:57.047Z,63.85
2016-08-28T02:04:57.046Z,64.05
2016-08-28T02:05:57.050Z,63.95
2016-08-28T02:06:57.055Z,63.85
2016-08-28T02:07:57.059Z,64.34
2016-08-28T02:08:57.063Z,64.14
2016-08-28T02:09:57.073Z,63.85
2016-08-28T02:10:57.075Z,64.14
2016-08-28T02:11:57.073Z,64.24
2016-08-28T02:12:57.081Z,64.53
2016-08-28T02:13:57.084Z,63.76
2016-08-28T02:14:57.085Z,64.53
2016-08-28T02:15:57.088Z,64.63
2016-08-28T02:16:57.101Z,65.4
2016-08-28T02:17:57.101Z,66.08
2016-08-28T02:18:57.102Z,65.11
2016-08-28T02:19:57.113Z,64.34
2016-08-28T02:20:57.107Z,65.78
2016-08-28T02:21:57.112Z,65.59
2016-08-28T02:22:57.113Z,66.94
2016-08-28T02:23:57.119Z,67.14
2016-08-28T02:24:57.121Z,66.08
2016-08-28T02:25:57.127Z,66.27
2016-08-28T02:26:57.131Z,68.3
2016-08-28T02:27:57.134Z,66.27
2016-08-28T02:28:57.136Z,66.56
2016-08-28T02:29:57.141Z,66.17
2016-08-28T02:30:57.145Z,66.43
2016-08-28T02:31:57.148Z,66.53
2016-08-28T02:32:57.153Z,66.82
2016-08-28T02:33:57.157Z,66.53
2016-08-28T02:34:57.160Z,66.24
2016-08-28T02:35:57.165Z,66.24
2016-08-28T02:36:57.168Z,66.24
2016-08-28T02:37:57.172Z,66.33
2016-08-28T02:38:57.176Z,66.53
2016-08-28T02:39:57.178Z,66.43
2016-08-28T02:40:57.181Z,66.88
2016-08-28T02:41:57.185Z,67.11
2016-08-28T02:42:57.192Z,67.27
2016-08-28T02:43:57.192Z,67.4
2016-08-28T02:44:57.195Z,67.78
2016-08-28T02:45:57.202Z,68.23
2016-08-28T02:46:57.202Z,68.26
2016-08-28T02:47:57.206Z,67.94
2016-08-28T02:48:57.217Z,68.36
2016-08-28T02:49:57.227Z,68.52
2016-08-28T02:50:57.220Z,68.91
2016-08-28T02:51:57.224Z,69.39
2016-08-28T02:52:57.930Z,68.62
2016-08-28T02:53:57.229Z,69
2016-08-28T02:54:57.238Z,68.91
2016-08-28T02:55:57.240Z,69
2016-08-28T02:56:57.241Z,68.91
2016-08-28T02:57:57.250Z,68.52
2016-08-28T02:58:57.246Z,68.52
2016-08-28T02:59:57.257Z,68.62
2016-08-28T03:00:57.256Z,68.04
2016-08-28T03:01:57.256Z,68.33
2016-08-28T03:02:57.260Z,68.33
2016-08-28T03:03:57.975Z,68.17
2016-08-28T03:04:57.271Z,67.97
2016-08-28T03:05:57.276Z,68.17
2016-08-28T03:06:57.278Z,68.07
2016-08-28T03:07:57.278Z,67.97
2016-08-28T03:08:57.281Z,68.13
2016-08-28T03:09:57.302Z,67.97
2016-08-28T03:10:57.288Z,67.97
2016-08-28T03:11:57.298Z,67.97
2016-08-28T03:12:57.296Z,68.17
2016-08-28T03:13:57.300Z,67.88
2016-08-28T03:14:57.306Z,68.07
2016-08-28T03:15:57.314Z,67.97
2016-08-28T03:16:57.310Z,68.07
2016-08-28T03:17:57.316Z,68.26
2016-08-28T03:18:57.316Z,68.07
2016-08-28T03:19:57.321Z,68.17
2016-08-28T03:20:57.323Z,68.07
2016-08-28T03:21:57.328Z,68.26
2016-08-28T03:22:57.332Z,68.17
2016-08-28T03:23:57.335Z,68.26
2016-08-28T03:24:57.340Z,68.07
2016-08-28T03:25:57.343Z,68.07
2016-08-28T03:26:57.346Z,68.43
2016-08-28T03:27:57.363Z,68.46
2016-08-28T03:28:57.364Z,68.36
2016-08-28T03:29:57.365Z,67.97
2016-08-28T03:30:58.069Z,68.13
2016-08-28T03:31:57.367Z,68.94
2016-08-28T03:32:57.370Z,68.52
2016-08-28T03:33:57.374Z,68.65
2016-08-28T03:34:57.375Z,69.29
2016-08-28T03:35:57.386Z,68.43
2016-08-28T03:36:57.383Z,68.91
2016-08-28T03:37:57.392Z,69
2016-08-28T03:38:57.396Z,68.52
2016-08-28T03:39:57.395Z,69
2016-08-28T03:40:57.398Z,68.23
2016-08-28T03:41:57.399Z,68.13
2016-08-28T03:42:57.402Z,67.94
2016-08-28T03:43:57.407Z,68.23
2016-08-28T03:44:57.413Z,68.36
2016-08-28T03:45:57.416Z,68.13
2016-08-28T03:46:57.419Z,68.17
2016-08-28T03:47:57.427Z,68.13
2016-08-28T03:48:58.134Z,68.17
2016-08-28T03:49:57.427Z,68.26
2016-08-28T03:50:57.434Z,67.59
2016-08-28T03:51:57.435Z,67.69
2016-08-28T03:52:57.439Z,67.49
2016-08-28T03:53:57.443Z,67.78
2016-08-28T03:54:57.455Z,67.49
2016-08-28T03:55:57.458Z,67.3
2016-08-28T03:56:57.457Z,67.78
2016-08-28T03:57:57.462Z,67.59
2016-08-28T03:58:57.458Z,67.59
2016-08-28T03:59:57.466Z,67.69
2016-08-28T04:00:57.465Z,67.59
2016-08-28T04:01:57.474Z,67.69
2016-08-28T04:02:57.482Z,67.49
2016-08-28T04:03:57.477Z,68.17
2016-08-28T04:04:57.480Z,68.17
2016-08-28T04:05:57.482Z,68.07
2016-08-28T04:06:57.491Z,68.17
2016-08-28T04:07:57.490Z,68.26
2016-08-28T04:08:57.508Z,67.78
2016-08-28T04:09:57.499Z,67.78
2016-08-28T04:10:57.503Z,68.17
2016-08-28T04:11:57.511Z,67.78
2016-08-28T04:12:57.516Z,68.36
2016-08-28T04:13:57.521Z,68.07
2016-08-28T04:14:57.521Z,68.36
2016-08-28T04:15:57.522Z,68.17
2016-08-28T04:16:57.523Z,68.07
2016-08-28T04:17:57.532Z,68.26
2016-08-28T04:18:57.529Z,68.55
2016-08-28T04:19:57.536Z,68.75
2016-08-28T04:20:57.550Z,68.65
2016-08-28T04:21:57.550Z,68.26
2016-08-28T04:22:57.552Z,68.17
2016-08-28T04:23:57.550Z,68.36
2016-08-28T04:24:57.549Z,68.4
2016-08-28T04:25:57.557Z,68.36
2016-08-28T04:26:57.558Z,68.4
2016-08-28T04:27:57.575Z,68.78
2016-08-28T04:28:58.280Z,68.1
2016-08-28T04:29:57.573Z,68.2
2016-08-28T04:30:57.572Z,68.78
2016-08-28T04:31:57.588Z,68.88
2016-08-28T04:32:57.586Z,68.55
2016-08-28T04:33:57.583Z,68.1
2016-08-28T04:34:57.605Z,68.2
2016-08-28T04:35:57.599Z,68.2
2016-08-28T04:36:57.596Z,68.1
2016-08-28T04:37:57.607Z,68.07
2016-08-28T04:38:57.611Z,68.4
2016-08-28T04:39:57.608Z,68.01
2016-08-28T04:40:57.610Z,67.72
2016-08-28T04:41:57.618Z,67.72
2016-08-28T04:42:57.626Z,68.2
2016-08-28T04:43:57.625Z,67.72
2016-08-28T04:44:57.635Z,67.72
2016-08-28T04:45:57.633Z,67.52
2016-08-28T04:46:57.636Z,67.04
2016-08-28T04:47:57.640Z,67.43
2016-08-28T04:48:57.643Z,66.98
2016-08-28T04:49:57.644Z,67.17
2016-08-28T04:50:57.655Z,67.04
2016-08-28T04:51:57.651Z,66.94
2016-08-28T04:52:57.654Z,67.43
2016-08-28T04:53:57.657Z,67.52
2016-08-28T04:54:57.661Z,67.82
2016-08-28T04:55:57.674Z,67.33
2016-08-28T04:56:57.674Z,67.08
2016-08-28T04:57:57.677Z,67.85
2016-08-28T04:58:57.677Z,67.66
2016-08-28T04:59:57.680Z,67.62
2016-08-28T05:00:57.690Z,67.66
2016-08-28T05:01:57.701Z,67.85
2016-08-28T05:02:57.710Z,68.3
2016-08-28T05:03:57.698Z,68.4
2016-08-28T05:04:57.704Z,67.91
2016-08-28T05:05:57.704Z,68.33
2016-08-28T05:06:57.709Z,68.24
2016-08-28T05:07:58.424Z,68.04
2016-08-28T05:08:57.715Z,68.43
2016-08-28T05:09:57.720Z,69.68
2016-08-28T05:10:57.724Z,71.14
2016-08-28T05:11:57.727Z,73.07
2016-08-28T05:12:57.732Z,75.2
2016-08-28T05:13:57.734Z,77
2016-08-28T05:14:57.737Z,76.32
2016-08-28T05:15:57.763Z,73.15
2016-08-28T05:16:57.744Z,80.06
2016-08-28T05:17:57.749Z,81.18
2016-08-28T05:18:57.755Z,84.99
2016-08-28T05:19:57.756Z,85.63
2016-08-28T05:20:57.765Z,89.1
2016-08-28T05:21:57.761Z,85.44
2016-08-28T05:22:57.766Z,87.13
2016-08-28T05:23:57.767Z,89.25
2016-08-28T05:24:57.768Z,92.04
2016-08-28T05:25:57.773Z,95.75
2016-08-28T05:26:57.775Z,98.14
2016-08-28T05:27:57.780Z,98.72
2016-08-28T05:28:57.782Z,99.44
2016-08-28T05:29:57.785Z,99.26
2016-08-28T05:30:57.784Z,99.99
2016-08-28T05:31:57.786Z,99.99
2016-08-28T05:32:57.788Z,99.99
2016-08-28T05:33:57.793Z,99.99
2016-08-28T05:34:57.794Z,99.99
2016-08-28T05:35:57.805Z,95.98
2016-08-28T05:36:57.802Z,94.78
2016-08-28T05:37:58.514Z,93.91
2016-08-28T05:38:57.805Z,91.61
2016-08-28T05:39:57.810Z,92.67
2016-08-28T05:40:57.807Z,91.71
2016-08-28T05:41:57.810Z,89.01
2016-08-28T05:42:57.811Z,89.64
2016-08-28T05:43:57.813Z,94.15
2016-08-28T05:44:57.815Z,94.45
2016-08-28T05:45:58.524Z,93.68
2016-08-28T05:46:57.820Z,92.61
2016-08-28T05:47:57.822Z,93
2016-08-28T05:48:57.826Z,92.04
2016-08-28T05:49:57.825Z,86.56
2016-08-28T05:50:57.828Z,86.51
2016-08-28T05:51:57.834Z,88.43
2016-08-28T05:52:57.833Z,89.97
2016-08-28T05:53:57.832Z,88.04
2016-08-28T05:54:57.836Z,87.76
2016-08-28T05:55:57.839Z,89.34
2016-08-28T05:56:57.841Z,90.16
2016-08-28T05:57:57.858Z,90.69
2016-08-28T05:58:57.844Z,89.82
2016-08-28T05:59:57.852Z,89.43
2016-08-28T06:00:57.850Z,90.11
2016-08-28T06:01:57.858Z,89.29
2016-08-28T06:02:57.859Z,88.62
2016-08-28T06:03:57.860Z,89.01
2016-08-28T06:04:57.858Z,89.2
2016-08-28T06:05:57.865Z,88.43
2016-08-28T06:06:57.877Z,89.29
2016-08-28T06:07:57.875Z,90.06
2016-08-28T06:08:57.874Z,90.93
2016-08-28T06:09:57.876Z,90.88
2016-08-28T06:10:57.875Z,90.97
2016-08-28T06:11:57.879Z,90.69
2016-08-28T06:12:57.880Z,90.78
2016-08-28T06:13:57.883Z,90.97
2016-08-28T06:14:57.886Z,90.3
2016-08-28T06:15:57.893Z,90.3
2016-08-28T06:16:57.893Z,89.24
2016-08-28T06:17:57.895Z,88.85
2016-08-28T06:18:57.897Z,90.4
2016-08-28T06:19:57.902Z,89.53
2016-08-28T06:20:57.904Z,89.53
2016-08-28T06:21:57.904Z,89.53
2016-08-28T06:22:57.907Z,90.2
2016-08-28T06:23:57.909Z,90.2
2016-08-28T06:24:57.925Z,88.09
2016-08-28T06:25:57.915Z,86.45
2016-08-28T06:26:57.918Z,85.97
2016-08-28T06:27:57.931Z,84.28
2016-08-28T06:28:57.928Z,84.76
2016-08-28T06:29:57.935Z,82.93
2016-08-28T06:30:57.932Z,82.35
2016-08-28T06:31:57.935Z,83.26
2016-08-28T06:32:57.944Z,82.1
2016-08-28T06:33:57.937Z,81.04
2016-08-28T06:34:57.941Z,79.6
2016-08-28T06:35:57.953Z,79.5
2016-08-28T06:36:57.947Z,79.31
2016-08-28T06:37:57.949Z,80.99
2016-08-28T06:38:57.954Z,78.86
2016-08-28T06:39:57.958Z,78.29
2016-08-28T06:40:57.958Z,79.25
2016-08-28T06:41:57.961Z,77.9
2016-08-28T06:42:57.968Z,77.26
2016-08-28T06:43:57.967Z,76.68
2016-08-28T06:44:57.981Z,76.72
2016-08-28T06:45:57.974Z,75.85
2016-08-28T06:46:57.981Z,76.67
2016-08-28T06:47:57.985Z,75.6
2016-08-28T06:48:57.983Z,75.64
2016-08-28T06:49:57.989Z,73.42
2016-08-28T06:50:58.008Z,73.22
2016-08-28T06:51:58.017Z,71.78
2016-08-28T06:52:58.009Z,72.26
2016-08-28T06:53:58.010Z,73.16
2016-08-28T06:54:58.012Z,73.65
2016-08-28T06:55:58.010Z,75.1
2016-08-28T06:56:58.022Z,74.13
2016-08-28T06:57:58.031Z,73.36
2016-08-28T06:58:58.023Z,69.66
2016-08-28T06:59:58.034Z,67.18
2016-08-28T07:00:58.033Z,66.88
2016-08-28T07:01:58.036Z,66.43
2016-08-28T07:02:58.043Z,65.69
2016-08-28T07:03:58.047Z,65.05
2016-08-28T07:04:58.049Z,61.22
2016-08-28T07:05:58.055Z,60.8
2016-08-28T07:06:58.075Z,59.28
2016-08-28T07:07:58.775Z,59.11
2016-08-28T07:08:58.076Z,55.64
2016-08-28T07:09:58.087Z,54.43
2016-08-28T07:10:58.092Z,51.07
2016-08-28T07:11:58.093Z,50.9
2016-08-28T07:12:58.098Z,49.17
2016-08-28T07:13:58.100Z,45.78
2016-08-28T07:14:58.108Z,45.61
2016-08-28T07:15:58.115Z,45.12
2016-08-28T07:16:58.832Z,44.92
2016-08-28T07:17:58.129Z,45.92
2016-08-28T07:18:58.137Z,45.14
2016-08-28T07:19:58.148Z,45.33
2016-08-28T07:20:58.151Z,46.48
2016-08-28T07:21:58.175Z,47.63
2016-08-28T07:22:58.169Z,48.66
2016-08-28T07:23:58.205Z,51.95
2016-08-28T07:24:58.191Z,53.36
2016-08-28T07:25:58.192Z,55.35
2016-08-28T07:26:58.196Z,57.46
2016-08-28T07:27:58.201Z,61.02
2016-08-28T07:28:58.210Z,61.38
2016-08-28T07:29:58.216Z,59.8
2016-08-28T07:30:58.230Z,61.32
2016-08-28T07:31:58.232Z,61.61
2016-08-28T07:32:58.237Z,61.04
2016-08-28T07:33:58.244Z,60.19
2016-08-28T07:34:58.255Z,58.47
2016-08-28T07:35:58.256Z,55.32
2016-08-28T07:36:58.262Z,54.28
2016-08-28T07:37:58.273Z,53.85
2016-08-28T07:38:58.277Z,52.12
2016-08-28T07:39:58.282Z,50.68
2016-08-28T07:40:58.290Z,49.44
2016-08-28T07:41:58.312Z,48.58
2016-08-28T07:42:58.306Z,48.58
2016-08-28T07:43:58.312Z,48.49
2016-08-28T07:44:58.324Z,51.31
2016-08-28T07:45:58.327Z,51.19
2016-08-28T07:46:58.332Z,52.44
2016-08-28T07:47:58.340Z,54.33
2016-08-28T07:48:58.349Z,56.25
2016-08-28T07:49:58.362Z,56.61
2016-08-28T07:50:58.366Z,56.68
2016-08-28T07:51:58.366Z,55.44
2016-08-28T07:52:58.380Z,54.18
2016-08-28T07:53:58.384Z,53.81
2016-08-28T07:54:58.389Z,51.8
2016-08-28T07:55:58.395Z,51.82
2016-08-28T07:56:58.402Z,50.38
2016-08-28T07:57:58.416Z,50.02
2016-08-28T07:58:58.418Z,47.71
2016-08-28T07:59:58.428Z,48.22
2016-08-28T08:00:58.431Z,46.68
2016-08-28T08:01:58.438Z,46.8
2016-08-28T08:02:58.447Z,45.75
2016-08-28T08:03:58.452Z,45.57
2016-08-28T08:04:58.484Z,44.71
2016-08-28T08:05:58.479Z,45.59
2016-08-28T08:06:58.482Z,45.03
2016-08-28T08:07:58.493Z,43.56
2016-08-28T08:08:58.495Z,43.66
2016-08-28T08:09:58.507Z,43.37
2016-08-28T08:10:58.513Z,44.34
2016-08-28T08:11:58.523Z,45.98
2016-08-28T08:12:58.537Z,46.82
2016-08-28T08:13:58.541Z,49.43
2016-08-28T08:14:58.548Z,51.63
2016-08-28T08:15:58.564Z,52.75
2016-08-28T08:16:58.564Z,53.41
2016-08-28T08:17:58.579Z,53.31
2016-08-28T08:18:58.586Z,50.9
2016-08-28T08:19:58.593Z,51.41
2016-08-28T08:20:58.593Z,48.54
2016-08-28T08:21:58.603Z,47.58
2016-08-28T08:22:58.617Z,44.67
2016-08-28T08:23:58.627Z,44.2
2016-08-28T08:24:58.629Z,44.52
2016-08-28T08:25:58.642Z,43.56
2016-08-28T08:26:58.645Z,43.09
2016-08-28T08:27:58.652Z,41.55
2016-08-28T08:28:58.677Z,41.45
2016-08-28T08:29:58.673Z,41.37
2016-08-28T08:30:58.680Z,39.82
2016-08-28T08:31:58.690Z,40.03
2016-08-28T08:32:58.697Z,39.64
2016-08-28T08:33:58.715Z,39.15
2016-08-28T08:34:58.716Z,40.48
2016-08-28T08:35:58.727Z,41.25
2016-08-28T08:36:59.439Z,42.58
2016-08-28T08:37:58.740Z,43.34
2016-08-28T08:38:58.752Z,44.18
2016-08-28T08:39:58.760Z,45.72
2016-08-28T08:40:58.771Z,46.29
2016-08-28T08:41:58.788Z,46.56
2016-08-28T08:42:58.790Z,46.73
2016-08-28T08:43:58.808Z,46.61
2016-08-28T08:44:58.809Z,47.19
2016-08-28T08:45:58.818Z,48.54
2016-08-28T08:46:58.824Z,49.61
2016-08-28T08:47:58.835Z,48.44
2016-08-28T08:48:58.843Z,48.73
2016-08-28T08:49:58.851Z,48.41
2016-08-28T08:50:58.865Z,48.41
2016-08-28T08:51:58.867Z,49.58
2016-08-28T08:52:58.879Z,48.12
2016-08-28T08:53:58.878Z,48.88
2016-08-28T08:54:58.890Z,49.07
2016-08-28T08:55:58.896Z,50.24
2016-08-28T08:56:58.903Z,50.24
2016-08-28T08:57:58.915Z,49.85
2016-08-28T08:58:58.924Z,48.29
2016-08-28T08:59:58.930Z,48.51
2016-08-28T09:00:58.938Z,48.41
2016-08-28T09:01:58.938Z,47.73
2016-08-28T09:02:58.945Z,47.25
2016-08-28T09:03:58.950Z,46.56
2016-08-28T09:04:58.960Z,46.47
2016-08-28T09:05:58.976Z,47.44
2016-08-28T09:06:58.975Z,47.25
2016-08-28T09:07:58.979Z,47.17
2016-08-28T09:08:58.992Z,46.88
2016-08-28T09:09:58.993Z,47.17
2016-08-28T09:10:59.009Z,47.85
2016-08-28T09:11:59.008Z,47.36
2016-08-28T09:12:59.015Z,46.97
2016-08-28T09:13:59.017Z,46.51
2016-08-28T09:14:59.023Z,46.9
2016-08-28T09:15:59.074Z,45.34
2016-08-28T09:16:59.037Z,45.34
2016-08-28T09:17:59.042Z,45.73
2016-08-28T09:18:59.049Z,45.34
2016-08-28T09:19:59.055Z,47.29
2016-08-28T09:20:59.063Z,46.8
2016-08-28T09:21:59.070Z,45.05
2016-08-28T09:22:59.075Z,45.17
2016-08-28T09:23:59.088Z,45.26
2016-08-28T09:24:59.087Z,44.29
2016-08-28T09:25:59.102Z,42.93
2016-08-28T09:26:59.102Z,44.58
2016-08-28T09:27:59.110Z,44.38
2016-08-28T09:28:59.113Z,44.29
2016-08-28T09:29:59.128Z,45.17
2016-08-28T09:30:59.130Z,45.36
2016-08-28T09:31:59.132Z,44.97
2016-08-28T09:32:59.149Z,43.61
2016-08-28T09:33:59.149Z,43.12
2016-08-28T09:34:59.155Z,42.44
2016-08-28T09:35:59.161Z,43.32
2016-08-28T09:36:59.166Z,42.46
2016-08-28T09:37:59.175Z,42.85
2016-08-28T09:38:59.183Z,42.85
2016-08-28T09:39:59.187Z,42.16
2016-08-28T09:40:59.195Z,41.48
2016-08-28T09:41:59.209Z,41.97
2016-08-28T09:42:59.217Z,41.09
2016-08-28T09:43:59.213Z,41.02
2016-08-28T09:44:59.223Z,41.8
2016-08-28T09:45:59.228Z,41.7
2016-08-28T09:46:59.244Z,41.7
2016-08-28T09:47:59.248Z,42.19
2016-08-28T09:48:59.248Z,42.19
2016-08-28T09:49:59.256Z,41.5
2016-08-28T09:50:59.263Z,41.41
2016-08-28T09:51:59.273Z,41.33
2016-08-28T09:52:59.280Z,41.23
2016-08-28T09:53:59.281Z,41.5
2016-08-28T09:54:59.289Z,42.01
2016-08-28T09:55:59.317Z,41.62
2016-08-28T09:56:59.307Z,41.91
2016-08-28T09:57:59.311Z,40.64
2016-08-28T09:58:59.317Z,40.45
2016-08-28T09:59:59.322Z,39.98
2016-08-28T10:00:59.328Z,40.27
2016-08-28T10:01:59.337Z,40.08
2016-08-28T10:02:59.348Z,40.17
2016-08-28T10:03:59.381Z,38.61
2016-08-28T10:04:59.368Z,38.61
2016-08-28T10:05:59.364Z,38.22
2016-08-28T10:06:59.380Z,37.63
2016-08-28T10:07:59.379Z,37.34
2016-08-28T10:08:59.385Z,37.24
2016-08-28T10:09:59.389Z,37.54
2016-08-28T10:10:59.406Z,38.02
2016-08-28T10:11:59.405Z,37.95
2016-08-28T10:12:59.420Z,37.65
2016-08-28T10:13:59.423Z,38.14
2016-08-28T10:14:59.426Z,37.73
2016-08-28T10:15:59.440Z,37.83
2016-08-28T10:16:59.441Z,38.63
2016-08-28T10:17:59.448Z,39.29
2016-08-28T10:19:00.181Z,37.93
2016-08-28T10:20:00.172Z,38.04
2016-08-28T10:20:59.482Z,38.82
2016-08-28T10:21:59.485Z,39.51
2016-08-28T10:22:59.488Z,39.12
2016-08-28T10:23:59.490Z,37.75
2016-08-28T10:24:59.497Z,38.04
2016-08-28T10:25:59.507Z,37.95
2016-08-28T10:26:59.514Z,38.24
2016-08-28T10:27:59.519Z,38.92
2016-08-28T10:28:59.535Z,38.55
2016-08-28T10:29:59.548Z,38.06
2016-08-28T10:30:59.542Z,37.65
2016-08-28T10:31:59.560Z,37.67
2016-08-28T10:32:59.554Z,37.77
2016-08-28T10:33:59.568Z,37.96
2016-08-28T10:34:59.565Z,38.55
2016-08-28T10:35:59.573Z,38.53
2016-08-28T10:36:59.584Z,37.67
2016-08-28T10:37:59.589Z,37.77
2016-08-28T10:38:59.595Z,37.67
2016-08-28T10:39:59.612Z,37.67
2016-08-28T10:40:59.613Z,37.87
2016-08-28T10:41:59.618Z,37.87
2016-08-28T10:42:59.630Z,37.59
2016-08-28T10:43:59.631Z,37.29
2016-08-28T10:44:59.640Z,37.39
2016-08-28T10:45:59.650Z,37.1
2016-08-28T10:46:59.653Z,37.59
2016-08-28T10:47:59.664Z,37.79
2016-08-28T10:48:59.675Z,37.69
2016-08-28T10:49:59.683Z,37.79
2016-08-28T10:50:59.686Z,37.79
2016-08-28T10:51:59.691Z,38.18
2016-08-28T10:52:59.699Z,37.51
2016-08-28T10:53:59.709Z,36.9
2016-08-28T10:54:59.714Z,36.72
2016-08-28T10:55:59.721Z,36.72
2016-08-28T10:56:59.728Z,34.96
2016-08-28T10:57:59.744Z,36.33
2016-08-28T10:58:59.749Z,36.45
2016-08-28T10:59:59.766Z,36.63
2016-08-28T11:00:59.756Z,35.25
2016-08-28T11:01:59.765Z,34.78
2016-08-28T11:02:59.772Z,34.3
2016-08-28T11:03:59.780Z,35.16
2016-08-28T11:04:59.786Z,34.69
2016-08-28T11:05:59.809Z,34.59
2016-08-28T11:06:59.806Z,36.16
2016-08-28T11:07:59.811Z,34.78
2016-08-28T11:08:59.818Z,34.1
2016-08-28T11:09:59.827Z,33.51
2016-08-28T11:10:59.834Z,34.98
2016-08-28T11:11:59.842Z,33.41
2016-08-28T11:12:59.860Z,33.8
2016-08-28T11:13:59.861Z,33.51
2016-08-28T11:14:59.868Z,33.61
2016-08-28T11:15:59.874Z,32.43
2016-08-28T11:16:59.890Z,33.61
2016-08-28T11:17:59.888Z,32.63
2016-08-28T11:18:59.904Z,32.53
2016-08-28T11:19:59.915Z,33.79
2016-08-28T11:20:59.909Z,33.31
2016-08-28T11:21:59.917Z,35.94
2016-08-28T11:22:59.930Z,34.1
2016-08-28T11:23:59.934Z,33.41
2016-08-28T11:24:59.962Z,33.41
2016-08-28T11:25:59.947Z,32.54
2016-08-28T11:26:59.973Z,32.06
2016-08-28T11:27:59.963Z,31.76
2016-08-28T11:28:59.971Z,31.48
2016-08-28T11:29:59.978Z,31.97
2016-08-28T11:30:59.997Z,31.48
2016-08-28T11:31:59.995Z,31.19
2016-08-28T11:33:00.001Z,32.57
2016-08-28T11:34:00.018Z,32.28
2016-08-28T11:35:00.017Z,31.97
2016-08-28T11:36:00.027Z,33.15
2016-08-28T11:37:00.035Z,32.09
2016-08-28T11:38:00.052Z,32.28
2016-08-28T11:39:00.054Z,30.32
2016-08-28T11:40:00.057Z,30.42
2016-08-28T11:41:00.067Z,30.53
2016-08-28T11:42:00.077Z,31.12
2016-08-28T11:43:00.089Z,28.96
2016-08-28T11:44:00.091Z,31.9
2016-08-28T11:45:00.114Z,30.53
2016-08-28T11:46:00.116Z,31.23
2016-08-28T11:47:00.114Z,29.76
2016-08-28T11:48:00.122Z,29.47
2016-08-28T11:49:00.141Z,29.37
2016-08-28T11:50:00.139Z,29.47
2016-08-28T11:51:00.151Z,28.88
2016-08-28T11:52:00.159Z,28.78
2016-08-28T11:53:00.167Z,28.19
2016-08-28T11:54:00.173Z,27.2
2016-08-28T11:55:00.887Z,27.31
2016-08-28T11:56:00.195Z,27.02
2016-08-28T11:57:00.200Z,26.14
2016-08-28T11:58:00.912Z,25.73
2016-08-28T11:59:00.214Z,27.02
2016-08-28T12:00:00.223Z,26.91
2016-08-28T12:01:00.233Z,26.53
2016-08-28T12:02:00.250Z,25.84
2016-08-28T12:03:00.269Z,31.25
2016-08-28T12:04:00.265Z,27.22
2016-08-28T12:05:00.273Z,27.91
2016-08-28T12:06:00.285Z,28.69
2016-08-28T12:07:00.284Z,29.59
2016-08-28T12:08:00.294Z,28.99
2016-08-28T12:09:00.308Z,30.17
2016-08-28T12:10:00.313Z,31.45
2016-08-28T12:11:00.325Z,27.4
2016-08-28T12:12:00.341Z,27.19
2016-08-28T12:13:00.337Z,27.39
2016-08-28T12:14:00.343Z,28.06
2016-08-28T12:15:00.359Z,31.58
2016-08-28T12:16:00.362Z,32.86
2016-08-28T12:17:00.370Z,33.82
2016-08-28T12:18:00.384Z,34.39
2016-08-28T12:19:00.395Z,35
2016-08-28T12:20:00.397Z,34.88
2016-08-28T12:21:00.403Z,35.86
2016-08-28T12:22:00.408Z,36.45
2016-08-28T12:23:00.428Z,36.55
2016-08-28T12:24:00.438Z,37.41
2016-08-28T12:25:00.435Z,37.51
2016-08-28T12:26:00.443Z,39.07
2016-08-28T12:27:00.456Z,39.25
2016-08-28T12:28:00.469Z,40.23
2016-08-28T12:29:00.465Z,41.29
2016-08-28T12:30:00.472Z,40.88
2016-08-28T12:31:00.490Z,41.83
2016-08-28T12:32:00.488Z,42.71
2016-08-28T12:33:00.511Z,42.6
2016-08-28T12:34:00.504Z,43.57
2016-08-28T12:35:00.514Z,44.34
2016-08-28T12:36:00.520Z,43.53
2016-08-28T12:37:00.528Z,43.26
2016-08-28T12:38:00.529Z,44.6
2016-08-28T12:39:00.562Z,45.41
2016-08-28T12:40:00.542Z,46.75
2016-08-28T12:41:00.551Z,45.58
2016-08-28T12:42:00.562Z,42.26
2016-08-28T12:43:00.564Z,42.24
2016-08-28T12:44:00.579Z,42.34
2016-08-28T12:45:00.589Z,42.93
2016-08-28T12:46:00.587Z,43.19
2016-08-28T12:47:00.592Z,44.17
2016-08-28T12:48:00.597Z,45.12
2016-08-28T12:49:00.602Z,42.79
2016-08-28T12:50:00.610Z,42.3
2016-08-28T12:51:00.617Z,42.2
2016-08-28T12:52:00.636Z,41.89
2016-08-28T12:53:00.629Z,42.3
2016-08-28T12:54:00.633Z,42.3
2016-08-28T12:55:00.653Z,42.4
2016-08-28T12:56:00.652Z,41.22
2016-08-28T12:57:00.659Z,41.22